createdAt,value
2018-05-12T00:01:24.324Z,9.77
2018-05-12T00:03:58.657Z,9.70
2018-05-12T00:06:33.787Z,11.13
2018-05-12T00:09:08.159Z,9.53
2018-05-12T00:11:42.493Z,13.23
2018-05-12T00:14:16.837Z,10.03
2018-05-12T00:16:51.133Z,10.83
2018-05-12T00:19:25.903Z,9.37
2018-05-12T00:22:00.185Z,8.57
2018-05-12T00:24:34.652Z,11.13
2018-05-12T00:27:08.963Z,9.80
2018-05-12T00:29:43.336Z,9.80
2018-05-12T00:32:17.995Z,8.80
2018-05-12T00:34:52.314Z,10.00
2018-05-12T00:37:26.786Z,10.77
2018-05-12T00:40:01.045Z,11.03
2018-05-12T00:42:35.560Z,8.57
2018-05-12T00:45:09.998Z,12.13
2018-05-12T00:47:44.311Z,9.30
2018-05-12T00:50:18.717Z,8.90
2018-05-12T00:52:53.164Z,10.00
2018-05-12T00:55:27.425Z,8.30
2018-05-12T00:58:01.756Z,11.50
2018-05-12T01:00:36.815Z,13.73
2018-05-12T01:03:11.188Z,9.67
2018-05-12T01:05:45.522Z,10.00
2018-05-12T01:08:19.980Z,12.43
2018-05-12T01:10:54.421Z,9.43
2018-05-12T01:13:29.116Z,11.27
2018-05-12T01:16:03.641Z,14.63
2018-05-12T01:18:37.925Z,8.47
2018-05-12T01:21:12.325Z,10.37
2018-05-12T01:23:46.680Z,14.00
2018-05-12T01:26:20.989Z,10.63
2018-05-12T01:28:55.470Z,11.83
2018-05-12T01:31:29.900Z,12.47
2018-05-12T01:34:04.317Z,14.20
2018-05-12T01:36:38.650Z,11.70
2018-05-12T01:39:12.983Z,10.87
2018-05-12T01:41:48.063Z,11.73
2018-05-12T01:44:23.216Z,11.20
2018-05-12T01:46:57.679Z,10.23
2018-05-12T01:49:32.213Z,12.30
2018-05-12T01:52:06.618Z,16.43
2018-05-12T01:54:41.081Z,11.13
2018-05-12T01:57:15.405Z,12.70
2018-05-12T01:59:49.887Z,11.87
2018-05-12T02:02:24.497Z,11.50
2018-05-12T02:04:59.029Z,11.90
2018-05-12T02:07:33.461Z,11.67
2018-05-12T02:10:08.645Z,10.03
2018-05-12T02:12:42.973Z,12.33
2018-05-12T02:15:17.279Z,12.47
2018-05-12T02:17:52.306Z,10.87
2018-05-12T02:20:26.817Z,10.40
2018-05-12T02:23:01.222Z,10.97
2018-05-12T02:25:35.506Z,13.87
2018-05-12T02:28:09.819Z,9.37
2018-05-12T02:30:44.138Z,8.63
2018-05-12T02:33:18.570Z,11.50
2018-05-12T02:35:53.175Z,8.97
2018-05-12T02:38:27.786Z,12.40
2018-05-12T02:41:02.228Z,11.30
2018-05-12T02:43:36.955Z,11.73
2018-05-12T02:46:11.441Z,12.67
2018-05-12T02:48:45.774Z,10.97
2018-05-12T02:51:20.190Z,12.33
2018-05-12T02:53:54.763Z,10.43
2018-05-12T02:56:29.066Z,13.93
2018-05-12T02:59:03.486Z,10.40
2018-05-12T03:01:37.895Z,11.17
2018-05-12T03:04:12.386Z,11.50
2018-05-12T03:06:46.945Z,13.47
2018-05-12T03:09:21.682Z,10.17
2018-05-12T03:11:56.286Z,11.27
2018-05-12T03:14:30.598Z,15.50
2018-05-12T03:17:05.108Z,18.33
2018-05-12T03:19:39.658Z,15.47
2018-05-12T03:22:13.970Z,12.87
2018-05-12T03:24:48.399Z,15.10
2018-05-12T03:27:22.725Z,17.03
2018-05-12T03:29:57.108Z,12.77
2018-05-12T03:32:31.459Z,11.07
2018-05-12T03:35:06.086Z,12.93
2018-05-12T03:37:40.602Z,10.70
2018-05-12T03:40:15.061Z,14.47
2018-05-12T03:42:49.461Z,12.43
2018-05-12T03:45:23.757Z,10.80
2018-05-12T03:47:58.149Z,10.80
2018-05-12T03:50:32.556Z,10.53
2018-05-12T03:53:07.018Z,11.27
2018-05-12T03:55:41.460Z,9.57
2018-05-12T03:58:15.981Z,13.83
2018-05-12T04:00:50.412Z,12.47
2018-05-12T04:03:24.918Z,13.13
2018-05-12T04:19:27.141Z,15.03
2018-05-12T04:22:01.575Z,13.37
2018-05-12T04:24:36.209Z,12.90
2018-05-12T04:27:11.328Z,11.97
2018-05-12T04:29:46.540Z,13.30
2018-05-12T04:32:20.828Z,13.43
2018-05-12T04:34:55.136Z,13.33
2018-05-12T04:37:29.523Z,12.43
2018-05-12T04:40:03.868Z,15.43
2018-05-12T04:42:38.209Z,13.17
2018-05-12T04:45:12.587Z,14.13
2018-05-12T04:47:47.014Z,15.77
2018-05-12T04:50:21.541Z,19.13
2018-05-12T04:52:55.979Z,15.93
2018-05-12T04:55:31.316Z,19.17
2018-05-12T04:58:05.707Z,15.90
2018-05-12T05:00:40.043Z,15.00
2018-05-12T05:03:14.344Z,13.60
2018-05-12T05:05:48.627Z,15.67
2018-05-12T05:08:23.082Z,16.77
2018-05-12T05:10:57.540Z,14.30
2018-05-12T05:13:31.820Z,19.37
2018-05-12T05:16:06.272Z,19.03
2018-05-12T05:18:40.668Z,15.67
2018-05-12T05:21:15.232Z,13.97
2018-05-12T05:23:49.744Z,15.10
2018-05-12T05:26:24.250Z,15.93
2018-05-12T05:28:59.496Z,15.13
2018-05-12T05:31:33.786Z,14.20
2018-05-12T05:34:08.763Z,14.17
2018-05-12T05:36:43.027Z,13.83
2018-05-12T05:39:17.477Z,18.37
2018-05-12T05:41:51.967Z,16.90
2018-05-12T05:44:26.440Z,15.57
2018-05-12T05:47:00.716Z,15.50
2018-05-12T05:49:35.107Z,14.13
2018-05-12T05:52:10.216Z,15.03
2018-05-12T05:54:44.617Z,15.20
2018-05-12T05:57:18.988Z,13.90
2018-05-12T05:59:53.472Z,11.47
2018-05-12T06:02:27.785Z,14.60
2018-05-12T06:05:02.081Z,16.00
2018-05-12T06:07:36.541Z,15.30
2018-05-12T06:10:11.655Z,14.27
2018-05-12T06:12:46.060Z,13.53
2018-05-12T06:15:20.357Z,13.70
2018-05-12T06:17:54.914Z,17.07
2018-05-12T06:20:29.345Z,14.63
2018-05-12T06:23:03.664Z,14.30
2018-05-12T06:25:37.984Z,13.73
2018-05-12T06:28:13.110Z,15.80
2018-05-12T06:30:47.520Z,13.87
2018-05-12T06:33:22.057Z,13.87
2018-05-12T06:35:56.376Z,12.40
2018-05-12T06:38:30.788Z,14.50
2018-05-12T06:41:05.200Z,13.33
2018-05-12T06:43:39.563Z,14.67
2018-05-12T06:46:15.369Z,10.67
2018-05-12T06:48:49.691Z,11.97
2018-05-12T06:51:24.028Z,12.20
2018-05-12T06:53:58.599Z,9.17
2018-05-12T06:56:33.060Z,14.30
2018-05-12T06:59:07.504Z,13.87
2018-05-12T07:01:41.782Z,16.73
2018-05-12T07:04:16.209Z,12.20
2018-05-12T07:06:50.549Z,11.10
2018-05-12T07:09:24.895Z,12.43
2018-05-12T07:11:59.281Z,10.77
2018-05-12T07:14:33.940Z,17.23
2018-05-12T07:17:08.658Z,13.23
2018-05-12T07:19:43.021Z,11.23
2018-05-12T07:22:17.494Z,10.07
2018-05-12T07:24:52.692Z,9.00
2018-05-12T07:27:27.358Z,11.57
2018-05-12T07:30:01.634Z,10.87
2018-05-12T07:32:36.108Z,12.20
2018-05-12T07:35:10.426Z,11.13
2018-05-12T07:37:44.776Z,11.13
2018-05-12T07:40:19.605Z,13.20
2018-05-12T07:42:53.920Z,11.80
2018-05-12T07:45:28.336Z,10.77
2018-05-12T07:48:02.633Z,10.73
2018-05-12T07:50:37.871Z,6.63
2018-05-12T07:53:12.188Z,10.77
2018-05-12T07:55:47.209Z,12.70
2018-05-12T07:58:21.500Z,12.90
2018-05-12T08:00:55.842Z,10.77
2018-05-12T08:03:30.179Z,6.97
2018-05-12T08:06:04.561Z,8.20
2018-05-12T08:08:39.151Z,8.57
2018-05-12T08:11:13.573Z,11.40
2018-05-12T08:13:47.914Z,11.47
2018-05-12T08:16:22.473Z,9.83
2018-05-12T08:18:56.885Z,11.23
2018-05-12T08:21:31.352Z,10.67
2018-05-12T08:24:05.618Z,13.40
2018-05-12T08:26:39.987Z,12.87
2018-05-12T08:29:14.357Z,10.57
2018-05-12T08:31:49.401Z,12.60
2018-05-12T08:34:24.626Z,9.73
2018-05-12T08:36:59.052Z,6.87
2018-05-12T08:39:34.382Z,8.40
2018-05-12T08:42:09.638Z,6.27
2018-05-12T08:44:44.032Z,11.50
2018-05-12T08:47:18.273Z,9.87
2018-05-12T08:49:52.557Z,14.57
2018-05-12T08:52:26.906Z,10.17
2018-05-12T09:26:08.525Z,11.43
2018-05-12T09:28:42.868Z,8.87
2018-05-12T09:31:17.267Z,7.40
2018-05-12T09:33:51.839Z,10.53
2018-05-12T09:36:26.232Z,15.67
2018-05-12T09:39:00.553Z,7.53
2018-05-12T09:41:34.811Z,11.43
2018-05-12T09:44:09.137Z,7.17
2018-05-12T09:46:43.575Z,6.47
2018-05-12T09:49:17.880Z,5.97
2018-05-12T09:51:52.305Z,9.87
2018-05-12T09:54:27.601Z,8.53
2018-05-12T09:57:02.175Z,5.10
2018-05-12T09:59:36.768Z,8.13
2018-05-12T10:02:11.107Z,7.30
2018-05-12T10:04:45.539Z,10.63
2018-05-12T10:07:19.969Z,9.50
2018-05-12T10:09:54.504Z,7.67
2018-05-12T10:12:28.945Z,9.17
2018-05-12T10:15:03.358Z,10.07
2018-05-12T10:17:37.844Z,13.23
2018-05-12T10:20:12.388Z,8.30
2018-05-12T10:22:47.179Z,6.87
2018-05-12T10:25:21.646Z,8.67
2018-05-12T10:27:56.260Z,9.40
2018-05-12T10:30:30.704Z,7.17
2018-05-12T10:33:05.221Z,6.53
2018-05-12T10:35:39.521Z,6.00
2018-05-12T10:38:13.816Z,10.67
2018-05-12T10:40:48.105Z,10.87
2018-05-12T10:43:22.452Z,8.30
2018-05-12T10:45:56.770Z,8.33
2018-05-12T10:48:31.034Z,5.63
2018-05-12T10:51:05.630Z,5.50
2018-05-12T10:53:40.154Z,7.50
2018-05-12T10:56:15.193Z,8.43
2018-05-12T10:58:49.501Z,6.53
2018-05-12T11:01:24.046Z,8.07
2018-05-12T11:03:58.682Z,6.47
2018-05-12T11:06:33.080Z,7.93
2018-05-12T11:09:07.406Z,7.87
2018-05-12T11:11:41.942Z,5.63
2018-05-12T11:14:16.428Z,8.47
2018-05-12T11:16:50.751Z,9.27
2018-05-12T11:19:25.120Z,7.90
2018-05-12T11:22:00.355Z,7.10
2018-05-12T11:24:34.691Z,7.63
2018-05-12T11:27:09.032Z,8.50
2018-05-12T11:29:43.361Z,6.60
2018-05-12T11:32:17.731Z,9.17
2018-05-12T11:34:52.037Z,10.57
2018-05-12T11:37:26.430Z,5.63
2018-05-12T11:40:00.739Z,5.87
2018-05-12T11:42:35.173Z,5.63
2018-05-12T11:45:09.518Z,8.63
2018-05-12T11:47:44.123Z,5.63
2018-05-12T11:50:18.445Z,4.67
2018-05-12T11:52:52.858Z,5.43
2018-05-12T11:55:27.265Z,8.67
2018-05-12T11:58:03.120Z,4.67
2018-05-12T12:00:37.672Z,11.60
2018-05-12T12:03:12.000Z,7.33
2018-05-12T12:05:47.309Z,7.20
2018-05-12T12:08:21.830Z,4.80
2018-05-12T12:10:56.286Z,7.93
2018-05-12T12:13:30.754Z,8.60
2018-05-12T12:16:05.213Z,4.40
2018-05-12T12:18:40.538Z,8.87
2018-05-12T12:21:15.101Z,5.97
2018-05-12T12:23:49.468Z,8.20
2018-05-12T12:26:23.902Z,6.83
2018-05-12T12:28:58.264Z,4.30
2018-05-12T12:31:32.701Z,6.03
2018-05-12T12:34:08.516Z,3.77
2018-05-12T12:36:42.853Z,8.63
2018-05-12T12:39:17.257Z,4.73
2018-05-12T12:41:51.523Z,6.07
2018-05-12T12:44:25.817Z,10.00
2018-05-12T12:47:00.117Z,7.20
2018-05-12T12:49:34.516Z,6.07
2018-05-12T12:52:08.784Z,4.83
2018-05-12T12:54:43.396Z,8.00
2018-05-12T12:57:17.673Z,7.27
2018-05-12T12:59:52.004Z,5.67
2018-05-12T13:02:26.611Z,4.73
2018-05-12T13:05:00.972Z,6.23
2018-05-12T13:07:35.467Z,4.67
2018-05-12T13:10:09.877Z,5.53
2018-05-12T13:12:44.981Z,10.37
2018-05-12T13:15:19.249Z,5.80
2018-05-12T13:17:53.758Z,6.70
2018-05-12T13:20:28.157Z,6.73
2018-05-12T13:23:02.667Z,7.33
2018-05-12T13:25:37.119Z,5.53
2018-05-12T13:28:11.753Z,5.07
2018-05-12T13:30:46.093Z,6.27
2018-05-12T13:33:20.482Z,3.97
2018-05-12T13:35:54.967Z,6.00
2018-05-12T13:38:29.324Z,5.17
2018-05-12T13:41:03.640Z,5.37
2018-05-12T13:43:37.963Z,3.63
2018-05-12T13:46:12.482Z,5.23
2018-05-12T13:48:46.729Z,5.80
2018-05-12T13:51:21.680Z,5.40
2018-05-12T13:53:55.956Z,4.40
2018-05-12T13:56:30.577Z,4.87
2018-05-12T13:59:04.864Z,4.03
2018-05-12T14:04:38.436Z,5.17
2018-05-12T14:07:12.884Z,3.43
2018-05-12T14:09:47.366Z,4.63
2018-05-12T14:12:21.870Z,7.27
2018-05-12T14:14:56.311Z,3.73
2018-05-12T14:17:30.583Z,4.37
2018-05-12T14:20:04.945Z,6.47
2018-05-12T14:22:39.497Z,5.13
2018-05-12T14:25:13.911Z,5.40
2018-05-12T14:27:49.003Z,4.47
2018-05-12T14:30:23.336Z,4.80
2018-05-12T14:32:57.739Z,4.13
2018-05-12T14:35:32.320Z,10.23
2018-05-12T14:38:06.597Z,4.70
2018-05-12T14:40:42.653Z,6.03
2018-05-12T14:43:16.973Z,4.73
2018-05-12T14:45:51.390Z,4.20
2018-05-12T14:48:25.716Z,4.93
2018-05-12T14:51:00.273Z,7.93
2018-05-12T14:53:34.769Z,5.57
2018-05-12T14:56:09.095Z,5.40
2018-05-12T14:58:43.498Z,4.17
2018-05-12T15:01:17.936Z,8.80
2018-05-12T15:03:52.341Z,5.03
2018-05-12T15:06:26.778Z,5.37
2018-05-12T15:09:01.393Z,4.40
2018-05-12T15:11:35.832Z,5.17
2018-05-12T15:14:11.857Z,3.60
2018-05-12T15:16:46.426Z,4.20
2018-05-12T15:22:04.868Z,8.53
2018-05-12T15:24:40.077Z,6.83
2018-05-12T15:27:14.516Z,6.37
2018-05-12T15:29:49.039Z,4.63
2018-05-12T15:32:23.661Z,5.10
2018-05-12T15:34:58.144Z,5.57
2018-05-12T15:37:32.614Z,6.93
2018-05-12T15:40:07.038Z,7.70
2018-05-12T15:42:41.380Z,6.70
2018-05-12T15:45:15.677Z,6.27
2018-05-12T15:47:49.980Z,4.37
2018-05-12T15:50:24.443Z,5.70
2018-05-12T15:52:58.712Z,6.47
2018-05-12T15:55:33.115Z,4.70
2018-05-12T15:58:07.505Z,5.83
2018-05-12T16:00:42.793Z,7.70
2018-05-12T16:03:18.000Z,6.53
2018-05-12T16:06:02.721Z,8.97
2018-05-12T16:08:37.148Z,5.50
2018-05-12T16:11:12.361Z,4.53
2018-05-12T16:13:46.756Z,4.47
2018-05-12T16:16:21.400Z,5.73
2018-05-12T16:18:55.701Z,5.57
2018-05-12T16:21:29.944Z,4.30
2018-05-12T16:24:05.812Z,4.97
2018-05-12T16:26:40.212Z,4.07
2018-05-12T16:29:14.660Z,3.70
2018-05-12T16:31:49.132Z,5.27
2018-05-12T16:34:23.632Z,4.90
2018-05-12T16:36:57.913Z,6.57
2018-05-12T16:39:32.188Z,4.80
2018-05-12T16:42:06.684Z,5.67
2018-05-12T16:44:41.155Z,6.00
2018-05-12T16:47:15.424Z,6.60
2018-05-12T16:49:49.792Z,5.30
2018-05-12T16:52:24.116Z,7.07
2018-05-12T16:54:58.392Z,7.53
2018-05-12T16:57:32.735Z,7.77
2018-05-12T17:00:07.012Z,7.00
2018-05-12T17:02:41.386Z,11.77
2018-05-12T17:05:15.931Z,6.97
2018-05-12T17:07:50.246Z,10.17
2018-05-12T17:10:24.668Z,7.47
2018-05-12T17:12:58.984Z,8.17
2018-05-12T17:15:33.395Z,9.07
2018-05-12T17:18:07.713Z,8.73
2018-05-12T17:20:42.134Z,9.13
2018-05-12T17:23:16.541Z,8.17
2018-05-12T17:25:57.244Z,6.43
2018-05-12T17:28:31.629Z,9.17
2018-05-12T17:31:06.883Z,9.57
2018-05-12T17:33:41.508Z,7.47
2018-05-12T17:36:15.883Z,9.23
2018-05-12T17:38:50.368Z,10.00
2018-05-12T17:41:24.800Z,7.87
2018-05-12T17:43:59.281Z,8.37
2018-05-12T17:46:33.742Z,9.13
2018-05-12T17:49:08.149Z,8.10
2018-05-12T17:51:42.680Z,8.17
2018-05-12T17:54:17.141Z,10.27
2018-05-12T17:56:51.705Z,7.33
2018-05-12T17:59:25.992Z,10.73
2018-05-12T18:02:00.325Z,8.00
2018-05-12T18:04:34.769Z,8.97
2018-05-12T18:07:09.183Z,9.17
2018-05-12T18:09:43.604Z,13.33
2018-05-12T18:12:17.899Z,10.90
2018-05-12T18:14:52.347Z,14.30
2018-05-12T18:17:26.817Z,12.57
2018-05-12T18:20:01.093Z,11.30
2018-05-12T18:22:35.512Z,12.87
2018-05-12T18:25:09.936Z,11.30
2018-05-12T18:27:44.568Z,18.53
2018-05-12T18:30:19.100Z,13.43
2018-05-12T18:32:53.508Z,12.47
2018-05-12T18:35:28.042Z,11.03
2018-05-12T18:38:02.277Z,10.90
2018-05-12T18:40:36.568Z,14.03
2018-05-12T18:43:11.173Z,12.63
2018-05-12T18:45:45.819Z,13.13
2018-05-12T18:48:20.288Z,14.33
2018-05-12T18:50:54.744Z,11.60
2018-05-12T18:53:29.121Z,11.77
2018-05-12T18:56:03.452Z,13.50
2018-05-12T18:58:37.846Z,13.97
2018-05-12T19:01:12.944Z,12.57
2018-05-12T19:03:47.277Z,11.17
2018-05-12T19:06:21.688Z,12.03
2018-05-12T19:08:56.907Z,12.83
2018-05-12T19:11:32.690Z,16.00
2018-05-12T19:14:07.124Z,13.57
2018-05-12T19:16:41.560Z,15.07
2018-05-12T19:19:16.156Z,12.80
2018-05-12T19:21:50.773Z,13.17
2018-05-12T19:24:25.327Z,13.43
2018-05-12T19:26:59.478Z,11.97
2018-05-12T19:29:33.800Z,15.40
2018-05-12T19:32:08.257Z,14.33
2018-05-12T19:34:42.892Z,15.00
2018-05-12T19:37:17.192Z,13.30
2018-05-12T19:39:51.572Z,13.77
2018-05-12T19:42:25.911Z,15.17
2018-05-12T19:45:00.249Z,15.57
2018-05-12T19:47:34.972Z,17.03
2018-05-12T19:50:09.394Z,15.83
2018-05-12T19:52:43.861Z,15.60
2018-05-12T19:55:18.125Z,16.33
2018-05-12T19:57:52.557Z,18.33
2018-05-12T20:00:27.906Z,20.50
2018-05-12T20:03:02.333Z,19.73
2018-05-12T20:05:36.836Z,19.07
2018-05-12T20:08:11.458Z,17.60
2018-05-12T20:10:45.923Z,17.60
2018-05-12T20:13:20.271Z,21.40
2018-05-12T20:15:54.797Z,19.33
2018-05-12T20:18:29.184Z,19.90
2018-05-12T20:21:04.381Z,20.43
2018-05-12T20:23:38.789Z,18.50
2018-05-12T20:26:13.325Z,22.97
2018-05-12T20:28:47.752Z,20.43
2018-05-12T20:31:22.225Z,21.47
2018-05-12T20:33:56.797Z,20.47
2018-05-12T20:36:31.076Z,22.77
2018-05-12T20:39:05.456Z,22.03
2018-05-12T20:41:39.749Z,24.53
2018-05-12T20:44:14.200Z,24.00
2018-05-12T20:46:48.512Z,25.73
2018-05-12T20:49:22.966Z,20.73
2018-05-12T20:51:57.306Z,25.17
2018-05-12T20:54:31.848Z,26.63
2018-05-12T20:57:06.480Z,22.50
2018-05-12T20:59:41.023Z,24.87
2018-05-12T21:02:15.493Z,26.53
2018-05-12T21:04:49.838Z,25.93
2018-05-12T21:07:24.188Z,29.27
2018-05-12T21:09:58.682Z,24.80
2018-05-12T21:12:33.077Z,25.90
2018-05-12T21:15:07.608Z,25.43
2018-05-12T21:17:42.032Z,26.33
2018-05-12T21:20:16.335Z,25.07
2018-05-12T21:22:50.684Z,29.43
2018-05-12T21:25:25.108Z,32.53
2018-05-12T21:27:59.640Z,30.50
2018-05-12T21:30:34.017Z,27.87
2018-05-12T21:33:08.393Z,26.70
2018-05-12T21:35:43.018Z,28.73
2018-05-12T21:38:17.628Z,28.80
2018-05-12T21:40:52.248Z,27.33
2018-05-12T21:43:26.648Z,30.13
2018-05-12T21:46:01.296Z,26.37
2018-05-12T21:48:35.708Z,30.13
2018-05-12T21:51:09.976Z,35.20
2018-05-12T21:53:44.621Z,31.90
2018-05-12T21:56:19.172Z,38.20
2018-05-12T21:58:53.493Z,35.73
2018-05-12T22:01:27.865Z,30.00
2018-05-12T22:04:02.221Z,30.40
2018-05-12T22:06:36.520Z,31.70
2018-05-12T22:09:10.901Z,31.13
2018-05-12T22:11:45.240Z,32.03
2018-05-12T22:14:19.816Z,30.37
2018-05-12T22:16:54.110Z,33.07
2018-05-12T22:19:28.655Z,33.73
2018-05-12T22:22:02.920Z,30.63
2018-05-12T22:24:37.319Z,31.67
2018-05-12T22:27:11.593Z,31.23
2018-05-12T22:29:46.024Z,31.53
2018-05-12T22:32:20.361Z,33.37
2018-05-12T22:34:54.874Z,34.60
2018-05-12T22:37:29.268Z,33.53
2018-05-12T22:40:03.612Z,32.60
2018-05-12T22:42:37.896Z,32.83
2018-05-12T22:45:12.356Z,31.77
2018-05-12T22:47:46.674Z,34.73
2018-05-12T22:50:21.102Z,33.43
2018-05-12T22:52:56.448Z,37.07
2018-05-12T22:55:31.079Z,34.23
2018-05-12T22:58:05.589Z,33.57
2018-05-12T23:00:40.129Z,32.80
2018-05-12T23:03:14.479Z,32.57
2018-05-12T23:05:48.968Z,31.73
2018-05-12T23:08:24.191Z,31.70
2018-05-12T23:10:58.881Z,35.80
2018-05-12T23:13:33.277Z,33.00
2018-05-12T23:16:07.686Z,31.37
2018-05-12T23:18:41.992Z,31.40
2018-05-12T23:21:16.468Z,32.60
2018-05-12T23:23:50.831Z,31.87
2018-05-12T23:26:25.200Z,32.37
2018-05-12T23:28:59.716Z,29.43
2018-05-12T23:31:34.188Z,31.60
2018-05-12T23:34:08.445Z,36.27
2018-05-12T23:36:43.024Z,29.43
2018-05-12T23:39:17.406Z,30.43
2018-05-12T23:41:51.878Z,37.13
2018-05-12T23:44:26.261Z,34.17
2018-05-12T23:47:00.851Z,33.73
2018-05-12T23:49:35.231Z,31.20
2018-05-12T23:52:10.265Z,34.50
2018-05-12T23:54:44.596Z,32.80
2018-05-12T23:57:19.112Z,31.80
2018-05-12T23:59:53.529Z,32.27
